Time;durP1;ratioP1;P1;durP2;ratioP2;P2;SDS_P1;SDS_P2;PMS_P1;PMS_P2;Temp;Humidity;BMP_temperature;BMP_pressure;BME280_temperature;BME280_humidity;BME280_pressure;Samples;Min_cycle;Max_cycle;Signal;HPM_P1;HPM_P2
2021/03/12 00:01:35;;;;;;;21.40;9.50;;;;;;;20.44;24.78;156503.16;1780909;80;21285;-84
2021/03/12 00:04:08;;;;;;;20.12;9.75;;;;;;;20.53;24.69;156526.94;1800454;80;21222;-84
2021/03/12 00:06:41;;;;;;;15.65;7.97;;;;;;;20.56;24.68;156536.19;1786611;80;21313;-84
2021/03/12 00:09:13;;;;;;;16.85;8.03;;;;;;;20.62;24.67;156550.73;1771119;79;21152;-85
2021/03/12 00:11:46;;;;;;;16.97;8.03;;;;;;;20.44;24.57;156503.16;1794910;80;21297;-87
2021/03/12 00:14:18;;;;;;;20.25;9.70;;;;;;;20.49;24.61;156517.70;1795404;80;21793;-87
2021/03/12 00:16:51;;;;;;;18.92;9.20;;;;;;;20.46;24.62;156509.75;1796182;80;21286;-86
2021/03/12 00:19:23;;;;;;;21.48;9.20;;;;;;;20.44;24.71;156504.45;1795205;80;21297;-86
2021/03/12 00:21:56;;;;;;;22.95;9.85;;;;;;;20.50;24.67;156519.00;1795191;80;21305;-85
2021/03/12 00:24:28;;;;;;;22.55;9.98;;;;;;;20.36;24.62;156483.31;1768801;81;21855;-84
2021/03/12 00:27:00;;;;;;;14.95;8.45;;;;;;;20.47;24.62;156511.11;1764011;80;21171;-84
2021/03/12 00:29:32;;;;;;;22.00;8.68;;;;;;;20.31;24.72;156470.08;1765343;81;21262;-86
2021/03/12 00:32:05;;;;;;;20.45;9.90;;;;;;;20.25;24.78;156454.23;1785556;79;21174;-86
2021/03/12 00:34:38;;;;;;;16.93;8.73;;;;;;;20.28;24.79;156460.83;1797888;80;21321;-85
2021/03/12 00:37:10;;;;;;;16.42;8.65;;;;;;;20.65;24.51;156558.69;1797686;80;21324;-85
2021/03/12 00:39:42;;;;;;;21.02;8.78;;;;;;;20.42;24.54;156499.22;1802763;79;21335;-85
2021/03/12 00:42:16;;;;;;;20.32;8.95;;;;;;;20.36;24.67;156482.03;1788465;79;21139;-86
2021/03/12 00:44:48;;;;;;;17.07;8.60;;;;;;;20.36;24.63;156483.31;1768523;79;21309;-85
2021/03/12 00:47:21;;;;;;;16.85;8.53;;;;;;;20.37;24.64;156485.97;1778827;80;21300;-85
2021/03/12 00:49:53;;;;;;;18.00;9.15;;;;;;;20.34;24.62;156476.72;1782560;79;21812;-86
2021/03/12 00:52:26;;;;;;;17.73;8.03;;;;;;;20.44;24.63;156503.16;1781236;79;21297;-86
2021/03/12 00:54:59;;;;;;;14.53;7.50;;;;;;;20.24;24.66;156451.59;1770520;80;21817;-84
2021/03/12 00:57:39;;;;;;;15.85;8.18;;;;;;;20.33;24.69;156474.06;1778797;80;21136;-84
2021/03/12 01:00:12;;;;;;;17.70;8.35;;;;;;;20.27;24.67;156458.19;1779339;79;21332;-84
2021/03/12 01:02:45;;;;;;;16.40;7.85;;;;;;;20.38;24.60;156487.27;1778778;80;21301;-83
2021/03/12 01:05:18;;;;;;;13.78;7.45;;;;;;;20.36;24.63;156483.31;1779072;80;21308;-83
2021/03/12 01:07:50;;;;;;;15.68;7.10;;;;;;;20.35;24.61;156479.38;1771780;79;21714;-85
2021/03/12 01:10:24;;;;;;;15.40;7.35;;;;;;;20.28;24.69;156460.83;1770448;80;21139;-87
2021/03/12 01:12:57;;;;;;;12.85;7.50;;;;;;;20.33;24.54;156474.06;1790768;79;21167;-86
2021/03/12 01:15:29;;;;;;;15.32;7.20;;;;;;;20.37;24.60;156484.67;1775188;79;21306;-85
2021/03/12 01:18:04;;;;;;;26.55;9.68;;;;;;;20.25;24.66;156454.23;1794617;79;21689;-84
2021/03/12 01:20:38;;;;;;;15.28;7.08;;;;;;;20.22;24.58;156445.00;1797376;80;21686;-84
2021/03/12 01:23:12;;;;;;;14.50;7.95;;;;;;;20.23;24.68;156447.64;1797732;80;21849;-84
2021/03/12 01:25:46;;;;;;;15.28;6.80;;;;;;;20.16;24.68;156429.11;1793569;79;21156;-84
2021/03/12 01:28:19;;;;;;;12.73;6.90;;;;;;;20.27;24.68;156459.53;1794963;79;21709;-85
2021/03/12 01:30:52;;;;;;;12.03;6.87;;;;;;;20.36;24.67;156482.03;1779505;79;21709;-83
2021/03/12 01:33:38;;;;;;;16.27;7.53;;;;;;;20.34;24.65;156478.02;1774670;79;21293;-84
2021/03/12 01:36:11;;;;;;;12.30;6.47;;;;;;;20.10;24.73;156413.27;1787889;79;21151;-84
2021/03/12 01:38:45;;;;;;;13.53;6.47;;;;;;;20.20;24.75;156441.00;1799463;79;21829;-83
2021/03/12 01:41:18;;;;;;;13.65;6.80;;;;;;;20.07;24.81;156406.67;1773083;79;21163;-83
2021/03/12 01:43:52;;;;;;;13.00;6.58;;;;;;;20.17;24.75;156433.09;1773026;80;21182;-84
2021/03/12 01:46:26;;;;;;;14.60;6.55;;;;;;;20.25;24.76;156452.94;1776953;80;21157;-83
2021/03/12 01:48:59;;;;;;;19.60;7.92;;;;;;;20.08;24.74;156407.97;1765806;81;21176;-84
2021/03/12 01:51:33;;;;;;;15.08;7.55;;;;;;;20.14;24.77;156425.16;1778665;79;21198;-84
2021/03/12 01:54:05;;;;;;;12.90;6.47;;;;;;;20.11;24.83;156417.22;1804956;79;21360;-84
2021/03/12 01:56:37;;;;;;;15.30;6.97;;;;;;;19.83;24.97;156340.53;1784277;79;21151;-83
2021/03/12 01:59:12;;;;;;;17.95;7.17;;;;;;;19.80;25.04;156333.89;1799915;79;21140;-83
2021/03/12 02:01:46;;;;;;;15.03;7.00;;;;;;;19.83;25.03;156340.53;1727336;82;21166;-84
2021/03/12 02:04:23;;;;;;;14.78;6.75;;;;;;;19.63;25.11;156287.64;1726200;83;21219;-85
2021/03/12 02:07:03;;;;;;;11.12;6.28;;;;;;;19.68;25.11;156300.87;1718106;83;21222;-84
2021/03/12 02:09:36;;;;;;;15.32;6.83;;;;;;;19.78;25.08;156328.64;1709660;84;21321;-85
2021/03/12 02:12:19;;;;;;;14.87;7.20;;;;;;;19.96;24.96;156374.89;1712689;83;21814;-85
2021/03/12 02:15:09;;;;;;;13.10;7.12;;;;;;;19.98;24.89;156381.53;1715939;83;21694;-84
2021/03/12 02:17:59;;;;;;;13.80;6.97;;;;;;;19.93;24.96;156368.25;1738904;82;21345;-84
2021/03/12 02:20:57;;;;;;;15.43;6.60;;;;;;;19.92;24.98;156365.61;1740099;82;21159;-84
2021/03/12 02:24:03;;;;;;;12.73;6.80;;;;;;;19.98;24.88;156382.84;1744996;82;21169;-84
2021/03/12 02:26:44;;;;;;;16.45;6.62;;;;;;;20.17;24.67;156433.09;1754856;82;21182;-84
2021/03/12 02:29:21;;;;;;;13.40;6.45;;;;;;;19.99;24.83;156385.48;1747002;81;21701;-83
2021/03/12 02:31:55;;;;;;;14.30;6.80;;;;;;;20.18;24.79;156434.41;1733514;81;21812;-84
2021/03/12 02:34:32;;;;;;;11.78;5.92;;;;;;;20.12;24.84;156418.56;1772611;81;21174;-84
2021/03/12 02:37:07;;;;;;;12.68;6.37;;;;;;;20.11;24.87;156415.91;1771747;80;21225;-84
2021/03/12 02:39:46;;;;;;;12.50;6.30;;;;;;;20.10;24.89;156413.27;1772708;81;21740;-84
2021/03/12 02:42:20;;;;;;;15.60;6.25;;;;;;;20.29;24.73;156463.48;1737855;82;21301;-84
2021/03/12 02:44:54;;;;;;;15.48;7.45;;;;;;;20.10;24.68;156413.27;1772426;81;21694;-84
2021/03/12 02:47:31;;;;;;;14.83;6.03;;;;;;;20.06;24.72;156404.02;1772993;81;21356;-84
2021/03/12 02:50:07;;;;;;;12.13;5.35;;;;;;;19.98;24.81;156381.53;1775080;79;21226;-85
2021/03/12 02:52:39;;;;;;;11.08;5.45;;;;;;;19.84;24.98;156344.47;1776092;81;21155;-84
2021/03/12 02:55:13;;;;;;;11.57;5.50;;;;;;;19.88;24.94;156353.72;1793410;80;21285;-84
2021/03/12 02:57:47;;;;;;;10.70;5.00;;;;;;;19.87;24.93;156352.42;1800198;79;21332;-84
2021/03/12 03:00:20;;;;;;;11.38;6.00;;;;;;;19.59;24.98;156277.09;1800687;80;21356;-84
2021/03/12 03:03:04;;;;;;;9.65;5.50;;;;;;;19.77;24.95;156326.00;1800022;79;21804;-84
2021/03/12 03:05:38;;;;;;;9.63;5.45;;;;;;;19.66;25.09;156296.92;1801045;79;21658;-84
2021/03/12 03:08:12;;;;;;;8.53;5.85;;;;;;;19.66;25.06;156296.92;1789564;79;21809;-84
2021/03/12 03:10:45;;;;;;;12.00;6.30;;;;;;;19.70;25.06;156306.17;1800578;79;21298;-84
2021/03/12 03:13:18;;;;;;;11.85;6.03;;;;;;;19.74;24.96;156318.06;1800653;80;21179;-84
2021/03/12 03:15:50;;;;;;;10.48;5.05;;;;;;;19.76;24.90;156322.00;1796154;79;21301;-85
2021/03/12 03:18:24;;;;;;;13.53;5.75;;;;;;;19.62;24.93;156286.34;1800538;80;21804;-84
2021/03/12 03:20:56;;;;;;;11.90;6.62;;;;;;;19.67;24.93;156298.22;1800555;80;21301;-83
2021/03/12 03:23:29;;;;;;;12.45;5.55;;;;;;;19.71;24.94;156310.11;1798208;80;21301;-83
2021/03/12 03:26:02;;;;;;;11.88;6.17;;;;;;;19.61;24.95;156283.69;1796531;79;21290;-83
2021/03/12 03:28:36;;;;;;;8.63;4.85;;;;;;;19.63;24.93;156288.98;1800695;79;21273;-80
2021/03/12 03:31:08;;;;;;;11.22;5.30;;;;;;;19.70;24.87;156306.17;1801757;79;21179;-79
2021/03/12 03:33:41;;;;;;;13.60;6.12;;;;;;;19.46;24.94;156244.03;1780454;79;22131;-81
2021/03/12 03:36:15;;;;;;;12.25;5.67;;;;;;;19.61;24.84;156283.69;1778801;80;21235;-81
2021/03/12 03:38:48;;;;;;;10.82;5.80;;;;;;;19.56;24.86;156270.45;1778898;80;21338;-81
2021/03/12 03:41:22;;;;;;;11.68;6.33;;;;;;;19.57;24.91;156273.09;1778838;80;21191;-81
2021/03/12 03:43:55;;;;;;;9.00;5.42;;;;;;;19.57;24.83;156271.81;1783497;79;21348;-80
2021/03/12 03:46:29;;;;;;;7.95;5.30;;;;;;;19.53;24.86;156261.22;1803259;79;21159;-81
2021/03/12 03:49:01;;;;;;;11.00;5.10;;;;;;;19.69;24.70;156304.81;1797505;80;21353;-82
2021/03/12 03:51:41;;;;;;;9.20;5.33;;;;;;;19.81;24.56;156335.23;1784164;80;21254;-82
2021/03/12 03:54:16;;;;;;;10.13;5.75;;;;;;;19.77;24.51;156324.64;1743208;82;21989;-81
2021/03/12 03:56:50;;;;;;;9.55;4.60;;;;;;;19.72;24.52;156311.45;1705257;83;21211;-81
2021/03/12 03:59:22;;;;;;;11.43;6.08;;;;;;;19.35;24.67;156214.97;1728046;82;21179;-83
2021/03/12 04:01:55;;;;;;;10.03;5.78;;;;;;;19.25;24.82;156187.27;1735739;82;21322;-82
2021/03/12 04:04:29;;;;;;;13.22;5.30;;;;;;;19.22;24.87;156179.33;1716342;83;21198;-81
2021/03/12 04:07:01;;;;;;;15.00;5.55;;;;;;;19.09;24.95;156146.28;1730808;82;21317;-82
2021/03/12 04:09:34;;;;;;;10.25;5.78;;;;;;;19.18;24.79;156168.75;1746071;82;21872;-82
2021/03/12 04:12:08;;;;;;;9.60;5.12;;;;;;;19.09;24.93;156146.28;1744795;82;21360;-82
2021/03/12 04:14:43;;;;;;;9.68;5.12;;;;;;;19.20;24.82;156175.39;1774503;80;21152;-83
2021/03/12 04:17:16;;;;;;;10.70;5.75;;;;;;;19.31;24.76;156203.09;1770349;79;21709;-82
2021/03/12 04:19:48;;;;;;;12.23;5.40;;;;;;;19.34;24.79;156211.03;1777065;80;21292;-80
2021/03/12 04:22:20;;;;;;;11.63;5.85;;;;;;;19.33;24.75;156209.69;1805022;79;21808;-83
2021/03/12 04:24:53;;;;;;;14.90;5.55;;;;;;;19.30;24.76;156201.80;1776295;79;21170;-83
2021/03/12 04:27:26;;;;;;;13.20;5.78;;;;;;;19.33;24.81;156208.39;1772622;81;21175;-83
2021/03/12 04:29:58;;;;;;;14.25;6.33;;;;;;;19.42;24.76;156232.16;1756988;79;21320;-82
2021/03/12 04:32:31;;;;;;;11.83;5.75;;;;;;;19.36;24.73;156217.62;1772414;80;21226;-85
2021/03/12 04:35:05;;;;;;;11.50;5.90;;;;;;;19.29;24.70;156197.81;1767662;81;21310;-87
2021/03/12 04:37:37;;;;;;;11.22;5.58;;;;;;;19.37;24.75;156220.27;1756176;79;21356;-81
2021/03/12 04:40:12;;;;;;;12.58;6.55;;;;;;;19.39;24.65;156225.56;1790460;78;21151;-81
2021/03/12 04:42:45;;;;;;;11.38;5.15;;;;;;;19.32;24.66;156205.75;1790972;78;21186;-87
2021/03/12 04:45:19;;;;;;;16.17;5.90;;;;;;;19.40;24.68;156228.22;1760976;79;21819;-90
2021/03/12 04:47:58;;;;;;;11.30;5.65;;;;;;;19.33;24.67;156208.39;1800528;79;21312;-86
2021/03/12 04:50:31;;;;;;;12.23;6.05;;;;;;;19.41;24.68;156229.50;1783016;78;21780;-84
2021/03/12 04:53:04;;;;;;;11.50;5.45;;;;;;;19.46;24.65;156242.73;1747116;79;21336;-85
2021/03/12 04:55:37;;;;;;;11.83;5.62;;;;;;;19.39;24.65;156225.56;1780114;79;21304;-91
2021/03/12 04:58:11;;;;;;;12.78;6.25;;;;;;;19.45;24.62;156240.09;1784626;79;21713;-89
2021/03/12 05:00:44;;;;;;;13.20;6.45;;;;;;;19.43;24.57;156236.16;1789403;79;21336;-84
2021/03/12 05:03:18;;;;;;;11.63;6.40;;;;;;;19.48;24.49;156249.33;1781974;79;21218;-79
2021/03/12 05:12:12;;;;;;;18.02;7.33;;;;;;;19.64;24.32;156291.63;1702281;83;21238;-76
2021/03/12 05:14:46;;;;;;;18.75;6.72;;;;;;;19.89;24.17;156357.72;1677910;84;21662;-76
2021/03/12 05:17:21;;;;;;;12.15;5.95;;;;;;;20.03;24.10;156394.73;1700433;84;21226;-76
2021/03/12 05:19:54;;;;;;;17.10;7.17;;;;;;;20.05;24.05;156401.38;1703764;82;21271;-77
2021/03/12 05:22:26;;;;;;;16.17;6.70;;;;;;;19.96;23.97;156374.89;1691991;82;21221;-75
2021/03/12 05:24:59;;;;;;;18.15;7.70;;;;;;;20.01;23.97;156390.78;1693139;82;21335;-76
2021/03/12 05:27:33;;;;;;;12.40;6.08;;;;;;;19.84;24.11;156344.47;1671350;84;21209;-76
2021/03/12 05:30:07;;;;;;;11.90;5.97;;;;;;;19.80;24.14;156332.58;1693129;82;21369;-79
2021/03/12 05:32:41;;;;;;;18.17;7.53;;;;;;;19.90;24.08;156359.00;1675523;82;21213;-75
2021/03/12 05:35:15;;;;;;;15.08;7.10;;;;;;;19.98;24.02;156380.19;1698098;82;21717;-79
2021/03/12 05:37:49;;;;;;;13.70;6.33;;;;;;;19.95;24.12;156372.25;1666059;84;21211;-79
2021/03/12 05:40:24;;;;;;;13.18;6.37;;;;;;;19.98;24.05;156381.53;1663939;83;21192;-77
2021/03/12 05:42:57;;;;;;;16.55;8.03;;;;;;;19.61;24.16;156283.69;1689283;82;21328;-79
2021/03/12 05:45:32;;;;;;;12.50;6.50;;;;;;;19.28;24.39;156196.50;1685290;82;21348;-75
2021/03/12 05:48:08;;;;;;;14.95;6.83;;;;;;;19.24;24.46;156185.92;1686660;82;21412;-78
2021/03/12 05:50:41;;;;;;;15.45;6.72;;;;;;;19.25;24.55;156188.56;1684673;82;21174;-75
2021/03/12 05:53:15;;;;;;;16.70;7.45;;;;;;;19.33;24.44;156209.69;1689761;82;21375;-74
2021/03/12 05:55:48;;;;;;;12.45;6.47;;;;;;;19.43;24.37;156236.16;1684611;82;21363;-79
2021/03/12 05:58:22;;;;;;;13.90;5.60;;;;;;;19.57;24.22;156273.09;1692957;82;21331;-87
2021/03/12 06:00:58;;;;;;;14.20;7.05;;;;;;;19.57;24.03;156271.81;1689458;82;21751;-77
2021/03/12 06:03:45;;;;;;;15.93;6.45;;;;;;;19.58;24.03;156275.75;1670119;82;21262;-75
2021/03/12 06:06:30;;;;;;;12.15;5.40;;;;;;;19.55;23.99;156267.86;1688309;82;21339;-75
2021/03/12 06:09:08;;;;;;;11.33;5.78;;;;;;;19.61;23.91;156282.39;1690615;82;21346;-75
2021/03/12 06:11:46;;;;;;;16.17;5.95;;;;;;;19.75;23.74;156320.69;1706163;81;21273;-78
2021/03/12 06:14:19;;;;;;;12.70;6.20;;;;;;;19.85;23.81;156347.12;1699077;81;21374;-78
2021/03/12 06:16:55;;;;;;;13.18;6.28;;;;;;;20.01;23.71;156390.78;1700650;81;21206;-78
2021/03/12 06:19:33;;;;;;;13.32;6.67;;;;;;;19.94;23.62;156369.59;1704201;82;21177;-80
2021/03/12 06:22:14;;;;;;;12.13;6.08;;;;;;;20.03;23.68;156396.08;1700158;81;21193;-77
2021/03/12 06:24:51;;;;;;;13.72;6.62;;;;;;;20.05;23.46;156400.03;1708687;81;21249;-77
2021/03/12 06:27:31;;;;;;;12.20;6.35;;;;;;;20.07;23.44;156406.67;1700499;81;21244;-78
2021/03/12 06:30:19;;;;;;;14.03;5.55;;;;;;;20.11;23.45;156415.91;1669529;83;21308;-78
2021/03/12 06:33:09;;;;;;;15.93;7.15;;;;;;;20.13;23.40;156422.50;1702295;81;21649;-78
2021/03/12 06:35:49;;;;;;;15.75;6.62;;;;;;;20.17;23.35;156431.75;1692596;83;21344;-76
2021/03/12 06:38:36;;;;;;;18.60;6.42;;;;;;;20.22;23.33;156445.00;1703725;81;21348;-77
2021/03/12 06:41:43;;;;;;;13.13;5.30;;;;;;;20.15;23.33;156426.45;1698562;81;21299;-77
2021/03/12 06:44:34;;;;;;;14.40;5.67;;;;;;;20.26;23.26;156455.53;1697393;82;21704;-79
2021/03/12 06:47:09;;;;;;;10.78;5.87;;;;;;;20.07;23.34;156405.31;1697255;82;21321;-77
2021/03/12 06:49:59;;;;;;;12.70;6.08;;;;;;;19.96;23.50;156374.89;1706967;81;21336;-75
2021/03/12 06:52:42;;;;;;;13.90;5.97;;;;;;;20.06;23.54;156402.67;1697260;83;21838;-75
2021/03/12 06:55:16;;;;;;;13.20;6.60;;;;;;;19.81;23.55;156335.23;1699688;82;21324;-76
2021/03/12 06:58:10;;;;;;;14.83;5.58;;;;;;;19.97;23.51;156378.89;1696774;82;21324;-77
2021/03/12 07:00:45;;;;;;;11.33;5.90;;;;;;;20.12;23.47;156418.56;1702311;81;21210;-77
2021/03/12 07:03:21;;;;;;;12.30;5.95;;;;;;;20.22;23.44;156446.28;1697803;82;21471;-76
2021/03/12 07:06:05;;;;;;;13.80;7.08;;;;;;;20.26;23.42;156455.53;1706596;81;21399;-78
2021/03/12 07:08:45;;;;;;;12.60;5.03;;;;;;;20.49;23.32;156516.34;1706240;81;21336;-79
2021/03/12 07:11:28;;;;;;;14.65;6.12;;;;;;;20.64;23.23;156557.39;1697374;81;21191;-79
2021/03/12 07:14:19;;;;;;;12.35;5.58;;;;;;;20.74;23.29;156583.83;1710182;81;21243;-79
2021/03/12 07:16:54;;;;;;;11.40;5.62;;;;;;;20.76;23.15;156587.78;1712698;83;21271;-78
2021/03/12 07:19:28;;;;;;;11.20;5.47;;;;;;;20.84;23.07;156608.97;1711416;81;21686;-76
2021/03/12 07:22:01;;;;;;;12.05;6.03;;;;;;;20.70;23.07;156571.94;1691295;82;21181;-76
2021/03/12 07:24:36;;;;;;;15.25;6.12;;;;;;;20.79;23.14;156595.78;1708108;81;21269;-76
2021/03/12 07:27:09;;;;;;;10.48;5.90;;;;;;;20.88;23.13;156619.58;1716651;81;21385;-77
2021/03/12 07:29:44;;;;;;;11.93;5.53;;;;;;;20.99;23.08;156651.31;1706884;81;21341;-75
2021/03/12 07:32:22;;;;;;;13.32;5.50;;;;;;;20.93;22.97;156635.47;1703413;81;21227;-77
2021/03/12 07:34:55;;;;;;;11.93;6.35;;;;;;;20.92;23.00;156630.17;1709248;82;21259;-78
2021/03/12 07:37:31;;;;;;;13.80;5.80;;;;;;;20.66;23.12;156562.63;1711193;82;21231;-74
2021/03/12 07:40:05;;;;;;;10.98;5.75;;;;;;;20.82;23.15;156605.03;1711139;81;21853;-75
2021/03/12 07:42:38;;;;;;;8.78;5.35;;;;;;;20.90;23.16;156624.88;1706563;82;21184;-76
2021/03/12 07:45:29;;;;;;;11.15;5.50;;;;;;;20.91;23.01;156627.53;1704843;82;21709;-75
2021/03/12 07:48:16;;;;;;;13.48;6.03;;;;;;;20.90;23.16;156624.88;1704644;82;21516;-76
2021/03/12 07:50:51;;;;;;;13.30;6.65;;;;;;;20.78;23.11;156593.13;1704259;83;21630;-77
2021/03/12 07:53:30;;;;;;;10.45;5.20;;;;;;;20.65;23.29;156558.69;1661588;81;21369;-76
2021/03/12 07:56:05;;;;;;;8.68;4.58;;;;;;;20.54;23.25;156530.89;1707255;82;21229;-76
2021/03/12 07:58:53;;;;;;;;;;;;;;;20.46;23.35;156509.75;1713061;81;21257;-76
2021/03/12 08:01:27;;;;;;;11.75;5.67;;;;;;;20.37;23.48;156484.67;1699360;82;20280;-77
2021/03/12 08:04:01;;;;;;;10.05;5.62;;;;;;;20.62;23.40;156550.73;1707554;82;21319;-77
2021/03/12 08:06:41;;;;;;;9.15;5.20;;;;;;;20.67;23.31;156563.98;1706619;83;21160;-76
2021/03/12 08:09:37;;;;;;;12.75;5.62;;;;;;;20.68;23.25;156567.94;1704494;82;21191;-74
2021/03/12 08:12:38;;;;;;;11.03;4.83;;;;;;;20.77;23.29;156590.44;1713987;81;21240;-77
2021/03/12 08:15:34;;;;;;;13.58;5.37;;;;;;;20.79;23.30;156597.08;1681583;82;21906;-74
2021/03/12 08:18:26;;;;;;;9.53;5.05;;;;;;;20.70;23.31;156573.23;1675026;82;21371;-75
2021/03/12 08:21:31;;;;;;;6.70;4.00;;;;;;;20.77;23.36;156590.44;1702957;81;21951;-74
2021/03/12 08:24:52;;;;;;;12.75;5.00;;;;;;;20.78;23.36;156593.13;1696958;81;21348;-74
2021/03/12 08:27:50;;;;;;;9.85;4.70;;;;;;;20.91;23.28;156627.53;1700573;82;21181;-74
2021/03/12 08:30:42;;;;;;;11.45;5.60;;;;;;;20.83;23.32;156606.38;1698178;82;21234;-74
2021/03/12 08:33:26;;;;;;;15.58;5.40;;;;;;;20.78;23.51;156594.44;1698813;82;21335;-75
2021/03/12 08:36:25;;;;;;;13.25;5.15;;;;;;;20.81;23.52;156602.37;1700858;82;21375;-72
2021/03/12 08:39:29;;;;;;;10.40;5.45;;;;;;;21.03;23.37;156660.58;1684180;82;21206;-76
2021/03/12 08:42:22;;;;;;;11.68;5.35;;;;;;;21.01;23.37;156655.27;1628376;87;21191;-77
2021/03/12 08:44:59;;;;;;;11.78;5.55;;;;;;;21.12;23.33;156685.72;1554107;89;21202;-76
2021/03/12 08:47:51;;;;;;;13.55;5.47;;;;;;;21.12;23.35;156684.42;1665541;83;21218;-75
2021/03/12 08:50:23;;;;;;;13.60;5.53;;;;;;;21.30;23.31;156732.03;1713811;83;21165;-75
2021/03/12 08:52:56;;;;;;;11.68;5.90;;;;;;;21.24;23.28;156717.48;1715137;83;21175;-75
2021/03/12 08:55:34;;;;;;;15.40;5.97;;;;;;;21.55;23.13;156799.50;1719122;83;21245;-75
2021/03/12 08:58:22;;;;;;;12.47;5.40;;;;;;;21.53;23.08;156794.20;1719970;83;21170;-76
2021/03/12 09:00:58;;;;;;;8.65;4.83;;;;;;;21.78;23.06;156859.14;1715548;83;21230;-77
2021/03/12 09:03:47;;;;;;;12.95;6.03;;;;;;;21.56;23.02;156800.86;1722081;83;21221;-75
2021/03/12 09:06:31;;;;;;;12.13;6.03;;;;;;;21.65;23.09;156826.02;1714915;83;21171;-76
2021/03/12 09:09:08;;;;;;;15.98;6.00;;;;;;;21.93;22.96;156901.47;1714213;83;21776;-75
2021/03/12 09:12:01;;;;;;;14.60;5.80;;;;;;;21.89;22.91;156889.56;1713327;83;21700;-75
2021/03/12 09:14:42;;;;;;;12.98;6.12;;;;;;;21.89;23.05;156889.56;1708674;83;21876;-76
2021/03/12 09:17:16;;;;;;;16.45;6.55;;;;;;;22.12;22.88;156951.81;1682752;84;21177;-76
2021/03/12 09:19:53;;;;;;;12.90;5.37;;;;;;;22.12;22.97;156950.45;1689968;84;21258;-76
2021/03/12 09:22:31;;;;;;;13.95;4.92;;;;;;;22.00;23.08;156920.03;1687606;84;21389;-76
2021/03/12 09:25:06;;;;;;;11.80;6.47;;;;;;;21.81;23.10;156868.39;1686346;84;21328;-75
2021/03/12 09:28:01;;;;;;;9.33;5.22;;;;;;;21.98;22.99;156913.42;1692515;82;21835;-77
2021/03/12 09:30:37;;;;;;;11.12;5.53;;;;;;;22.42;22.74;157030.00;1685826;83;21769;-74
2021/03/12 09:33:36;;;;;;;;;;;;;;;22.42;22.90;157031.28;1691706;83;21151;-75
2021/03/12 09:36:43;;;;;;;12.60;5.90;;;;;;;22.22;22.94;156976.98;1686110;85;20258;-75
2021/03/12 09:39:22;;;;;;;15.90;6.45;;;;;;;22.62;22.90;157084.31;1654544;85;21224;-75
2021/03/12 09:42:03;;;;;;;15.63;6.97;;;;;;;22.70;22.77;157105.48;1653984;85;21301;-76
2021/03/12 09:44:36;;;;;;;10.08;5.03;;;;;;;22.78;23.09;157125.36;1688351;84;21174;-76
2021/03/12 09:47:09;;;;;;;12.00;5.87;;;;;;;22.73;24.99;157113.45;1688636;84;21622;-75
2021/03/12 09:49:44;;;;;;;13.53;6.25;;;;;;;22.84;25.55;157142.59;1657841;86;21758;-75
2021/03/12 09:52:19;;;;;;;14.80;7.05;;;;;;;22.72;23.42;157109.44;1689543;83;21317;-75
2021/03/12 09:54:54;;;;;;;17.85;7.50;;;;;;;22.74;23.31;157114.75;1657723;86;21244;-76
2021/03/12 09:57:27;;;;;;;13.55;6.08;;;;;;;22.67;23.12;157096.22;1689782;84;21872;-74
2021/03/12 10:00:01;;;;;;;11.75;5.30;;;;;;;22.63;23.68;157085.61;1689061;83;21305;-75
2021/03/12 10:02:54;;;;;;;13.95;5.80;;;;;;;22.70;23.97;157105.48;1657542;86;21261;-74
2021/03/12 10:05:43;;;;;;;10.23;5.62;;;;;;;22.60;23.66;157077.66;1696550;83;21324;-75
2021/03/12 10:08:18;;;;;;;14.47;6.03;;;;;;;22.56;23.55;157068.39;1689769;83;21309;-75
2021/03/12 10:11:07;;;;;;;11.10;4.97;;;;;;;22.76;24.44;157120.06;1689529;85;21863;-75
2021/03/12 10:13:41;;;;;;;12.73;5.65;;;;;;;22.52;24.71;157057.77;1688098;85;21188;-75
2021/03/12 10:16:22;;;;;;;13.05;5.62;;;;;;;22.34;27.37;157008.77;1699287;83;21344;-76
2021/03/12 10:18:59;;;;;;;13.88;6.40;;;;;;;22.70;26.31;157104.13;1715371;83;21237;-74
2021/03/12 10:21:32;;;;;;;18.07;5.90;;;;;;;22.79;26.07;157130.67;1718543;82;21819;-75
2021/03/12 10:24:05;;;;;;;14.03;6.37;;;;;;;22.90;27.47;157158.47;1719294;82;21351;-75
2021/03/12 10:26:39;;;;;;;18.65;7.58;;;;;;;22.93;33.23;157167.72;1693917;83;21317;-76
2021/03/12 10:29:12;;;;;;;11.20;6.03;;;;;;;23.24;37.74;157248.61;1682484;83;21317;-74
2021/03/12 10:31:44;;;;;;;11.78;5.62;;;;;;;22.79;38.53;157130.67;1692549;83;21328;-74
2021/03/12 10:34:17;;;;;;;10.65;5.17;;;;;;;22.64;39.12;157088.27;1716240;83;21202;-75
2021/03/12 10:36:52;;;;;;;10.32;5.40;;;;;;;25.68;34.75;157901.44;1716399;83;21201;-75
2021/03/12 10:39:43;;;;;;;13.38;6.10;;;;;;;24.60;35.30;157610.72;1690358;83;21367;-75
2021/03/12 10:42:16;;;;;;;13.22;5.78;;;;;;;25.51;43.80;157854.97;1701910;83;21596;-76
2021/03/12 10:44:55;;;;;;;11.60;5.35;;;;;;;25.00;61.74;157719.50;1720014;82;21910;-76
2021/03/12 10:47:28;;;;;;;11.85;5.85;;;;;;;25.21;37.28;157775.34;1720063;83;21194;-75
2021/03/12 10:50:02;;;;;;;13.08;6.55;;;;;;;25.84;40.76;157942.66;1719976;83;21344;-76
2021/03/12 10:52:36;;;;;;;15.23;5.97;;;;;;;26.09;35.24;158010.42;1718793;83;21210;-75
2021/03/12 10:55:10;;;;;;;10.03;5.40;;;;;;;25.71;43.10;157908.06;1719919;83;21190;-77
2021/03/12 10:57:48;;;;;;;13.85;7.10;;;;;;;28.41;75.83;142558.16;1719243;83;21737;-76
2021/03/12 11:00:24;;;;;;;14.35;6.78;;;;;;;27.25;33.82;158320.12;1718101;83;21322;-76
2021/03/12 11:03:01;;;;;;;16.32;7.28;;;;;;;31.31;31.15;159408.28;1718144;83;21232;-76
2021/03/12 11:05:34;;;;;;;20.10;7.53;;;;;;;30.45;29.96;159176.25;1716944;83;21336;-76
2021/03/12 11:08:08;;;;;;;16.67;6.95;;;;;;;29.40;31.04;158895.09;1717968;83;21808;-76
2021/03/12 11:10:40;;;;;;;18.67;9.15;;;;;;;29.00;31.02;158788.56;1697513;83;21408;-76
2021/03/12 11:13:13;;;;;;;16.95;6.67;;;;;;;28.53;31.40;158662.03;1690946;83;21281;-76
2021/03/12 11:15:45;;;;;;;18.85;7.92;;;;;;;31.75;33.11;159525.73;1717023;83;21182;-76
2021/03/12 11:18:20;;;;;;;20.12;9.05;;;;;;;30.69;32.13;159241.59;1706309;82;21182;-76
2021/03/12 11:20:53;;;;;;;21.35;9.75;;;;;;;30.03;31.08;159064.34;1700743;84;21333;-75
2021/03/12 11:23:26;;;;;;;21.52;10.30;;;;;;;29.71;35.52;158979.00;1715854;83;21190;-76
2021/03/12 11:26:03;;;;;;;20.68;8.98;;;;;;;29.46;31.56;158912.41;1719850;82;21214;-75
2021/03/12 11:28:36;;;;;;;19.87;9.85;;;;;;;29.57;31.33;158940.39;1717644;83;21364;-76
2021/03/12 11:31:10;;;;;;;26.90;11.28;;;;;;;29.54;31.27;158932.39;1716376;83;21735;-76
2021/03/12 11:33:48;;;;;;;18.65;9.60;;;;;;;29.57;31.07;158940.39;1716474;83;21233;-76
2021/03/12 11:36:21;;;;;;;30.77;10.93;;;;;;;30.03;49.70;159062.98;1717324;82;21233;-77
2021/03/12 11:38:53;;;;;;;22.85;9.75;;;;;;;29.77;32.51;158993.66;1719692;83;21209;-77
2021/03/12 11:41:26;;;;;;;22.67;10.10;;;;;;;29.50;31.81;158923.08;1719466;83;21246;-77
2021/03/12 11:43:58;;;;;;;19.95;9.98;;;;;;;28.82;32.34;158739.30;1691691;83;21190;-78
2021/03/12 11:46:30;;;;;;;17.17;8.58;;;;;;;31.20;39.54;159377.64;1717229;83;21368;-76
2021/03/12 11:49:05;;;;;;;19.82;9.18;;;;;;;31.28;29.93;159398.95;1716495;83;21343;-77
2021/03/12 11:51:38;;;;;;;16.07;7.72;;;;;;;30.51;30.86;159192.27;1717071;83;21373;-78
2021/03/12 11:54:11;;;;;;;21.65;8.98;;;;;;;30.40;30.55;159164.27;1717651;83;21716;-77
2021/03/12 11:56:43;;;;;;;21.55;9.35;;;;;;;30.08;30.94;159077.64;1696784;83;21233;-77
2021/03/12 11:59:16;;;;;;;13.95;8.00;;;;;;;30.34;30.75;159146.94;1716739;83;21151;-78
2021/03/12 12:01:48;;;;;;;14.68;8.00;;;;;;;27.91;32.76;158495.69;1717770;83;21819;-78
2021/03/12 12:04:21;;;;;;;17.67;8.30;;;;;;;28.92;32.04;158765.91;1719025;82;21222;-77
2021/03/12 12:06:55;;;;;;;20.02;9.03;;;;;;;29.15;31.82;158827.16;1716227;83;21725;-77
2021/03/12 12:09:27;;;;;;;16.67;8.48;;;;;;;29.22;31.74;158845.83;1716663;83;21424;-78
2021/03/12 12:11:59;;;;;;;13.13;7.85;;;;;;;29.32;31.70;158872.44;1716413;83;21217;-78